sensor_id;sensor_type;location;lat;lon;timestamp;pressure;altitude;pressure_sealevel;temperature;humidity
32320;BME280;19080;51.750;5.888;2023-04-01T00:01:15;98906.38;;;10.38;100.00
32320;BME280;19080;51.750;5.888;2023-04-01T00:03:43;98899.25;;;10.40;100.00
32320;BME280;19080;51.750;5.888;2023-04-01T00:06:13;98891.47;;;10.31;100.00
32320;BME280;19080;51.750;5.888;2023-04-01T00:08:40;98899.25;;;10.40;100.00
32320;BME280;19080;51.750;5.888;2023-04-01T00:11:07;98925.59;;;10.53;100.00
32320;BME280;19080;51.750;5.888;2023-04-01T00:13:33;98830.03;;;10.02;100.00
32320;BME280;19080;51.750;5.888;2023-04-01T00:16:00;98914.19;;;10.46;100.00
32320;BME280;19080;51.750;5.888;2023-04-01T00:18:29;98876.63;;;10.17;100.00
32320;BME280;19080;51.750;5.888;2023-04-01T00:20:56;98891.56;;;10.25;100.00
32320;BME280;19080;51.750;5.888;2023-04-01T00:23:23;98919.66;;;10.37;100.00
32320;BME280;19080;51.750;5.888;2023-04-01T00:25:50;98923.19;;;10.39;100.00
32320;BME280;19080;51.750;5.888;2023-04-01T00:28:18;98876.63;;;10.18;100.00
32320;BME280;19080;51.750;5.888;2023-04-01T00:30:45;98855.63;;;10.03;100.00
32320;BME280;19080;51.750;5.888;2023-04-01T00:33:12;98898.63;;;10.26;100.00
32320;BME280;19080;51.750;5.888;2023-04-01T00:35:39;98919.53;;;10.43;100.00
32320;BME280;19080;51.750;5.888;2023-04-01T00:38:06;98881.09;;;10.13;100.00
32320;BME280;19080;51.750;5.888;2023-04-01T00:40:37;98935.41;;;10.46;100.00
32320;BME280;19080;51.750;5.888;2023-04-01T00:43:11;98918.63;;;10.46;100.00
32320;BME280;19080;51.750;5.888;2023-04-01T00:45:41;98919.63;;;10.40;100.00
32320;BME280;19080;51.750;5.888;2023-04-01T00:48:12;98855.63;;;10.03;100.00
32320;BME280;19080;51.750;5.888;2023-04-01T00:50:43;98891.53;;;10.28;100.00
32320;BME280;19080;51.750;5.888;2023-04-01T00:53:11;98835.44;;;9.94;100.00
32320;BME280;19080;51.750;5.888;2023-04-01T00:55:42;98905.53;;;10.36;100.00
32320;BME280;19080;51.750;5.888;2023-04-01T00:58:14;98927.34;;;10.54;100.00
32320;BME280;19080;51.750;5.888;2023-04-01T01:00:42;98902.94;;;10.33;100.00
32320;BME280;19080;51.750;5.888;2023-04-01T01:03:09;98845.03;;;10.03;100.00
32320;BME280;19080;51.750;5.888;2023-04-01T01:06:29;98938.78;;;10.57;100.00
32320;BME280;19080;51.750;5.888;2023-04-01T01:11:34;98925.69;;;10.47;100.00
32320;BME280;19080;51.750;5.888;2023-04-01T01:16:51;98922.94;;;10.53;100.00
32320;BME280;19080;51.750;5.888;2023-04-01T01:22:18;98919.47;;;10.48;100.00
32320;BME280;19080;51.750;5.888;2023-04-01T01:27:20;98907.41;;;10.30;100.00
32320;BME280;19080;51.750;5.888;2023-04-01T01:35:31;98960.03;;;10.56;100.00
32320;BME280;19080;51.750;5.888;2023-04-01T01:38:23;98941.41;;;10.59;100.00
32320;BME280;19080;51.750;5.888;2023-04-01T01:40:58;98939.78;;;10.49;100.00
32320;BME280;19080;51.750;5.888;2023-04-01T01:43:32;98952.97;;;10.55;100.00
32320;BME280;19080;51.750;5.888;2023-04-01T01:46:04;98960.91;;;10.55;100.00
32320;BME280;19080;51.750;5.888;2023-04-01T01:48:35;98865.44;;;9.98;100.00
32320;BME280;19080;51.750;5.888;2023-04-01T01:51:05;98933.69;;;10.43;100.00
32320;BME280;19080;51.750;5.888;2023-04-01T01:53:32;98940.75;;;10.44;100.00
32320;BME280;19080;51.750;5.888;2023-04-01T01:55:59;98934.72;;;10.36;100.00
32320;BME280;19080;51.750;5.888;2023-04-01T01:58:33;98960.94;;;10.53;100.00
32320;BME280;19080;51.750;5.888;2023-04-01T02:01:18;98914.59;;;10.22;100.00
32320;BME280;19080;51.750;5.888;2023-04-01T02:03:47;98956.63;;;10.46;100.00
32320;BME280;19080;51.750;5.888;2023-04-01T02:06:17;98972.44;;;10.54;100.00
32320;BME280;19080;51.750;5.888;2023-04-01T02:08:49;98913.66;;;10.24;100.00
32320;BME280;19080;51.750;5.888;2023-04-01T02:11:19;98886.41;;;10.13;100.00
32320;BME280;19080;51.750;5.888;2023-04-01T02:13:52;98937.38;;;10.35;100.00
32320;BME280;19080;51.750;5.888;2023-04-01T02:16:28;98938.34;;;10.29;100.00
32320;BME280;19080;51.750;5.888;2023-04-01T02:18:59;98938.31;;;10.32;100.00
32320;BME280;19080;51.750;5.888;2023-04-01T02:21:29;98979.41;;;10.59;100.00
32320;BME280;19080;51.750;5.888;2023-04-01T02:23:58;98951.47;;;10.38;100.00
32320;BME280;19080;51.750;5.888;2023-04-01T02:26:27;98884.78;;;10.03;100.00
32320;BME280;19080;51.750;5.888;2023-04-01T02:28:55;98947.00;;;10.40;100.00
32320;BME280;19080;51.750;5.888;2023-04-01T02:31:23;98957.56;;;10.43;100.00
32320;BME280;19080;51.750;5.888;2023-04-01T02:33:53;98976.03;;;10.50;100.00
32320;BME280;19080;51.750;5.888;2023-04-01T02:36:20;98983.84;;;10.59;100.00
32320;BME280;19080;51.750;5.888;2023-04-01T02:38:47;98967.25;;;10.46;100.00
32320;BME280;19080;51.750;5.888;2023-04-01T02:41:16;98920.91;;;10.10;100.00
32320;BME280;19080;51.750;5.888;2023-04-01T02:43:42;98956.88;;;10.32;100.00
32320;BME280;19080;51.750;5.888;2023-04-01T02:46:09;98978.03;;;10.35;100.00
32320;BME280;19080;51.750;5.888;2023-04-01T02:48:36;98963.94;;;10.32;100.00
32320;BME280;19080;51.750;5.888;2023-04-01T02:51:03;99000.75;;;10.52;100.00
32320;BME280;19080;51.750;5.888;2023-04-01T02:53:30;98992.94;;;10.42;100.00
32320;BME280;19080;51.750;5.888;2023-04-01T02:55:56;98975.47;;;10.29;100.00
32320;BME280;19080;51.750;5.888;2023-04-01T02:58:23;98965.69;;;10.33;100.00
32320;BME280;19080;51.750;5.888;2023-04-01T03:00:50;98943.69;;;10.26;100.00
32320;BME280;19080;51.750;5.888;2023-04-01T03:03:17;98907.94;;;9.89;100.00
32320;BME280;19080;51.750;5.888;2023-04-01T03:05:44;99005.31;;;10.40;100.00
32320;BME280;19080;51.750;5.888;2023-04-01T03:08:10;98900.13;;;9.79;100.00
32320;BME280;19080;51.750;5.888;2023-04-01T03:10:38;98968.66;;;10.07;100.00
32320;BME280;19080;51.750;5.888;2023-04-01T03:13:05;98969.50;;;10.09;100.00
32320;BME280;19080;51.750;5.888;2023-04-01T03:15:32;98959.84;;;10.05;100.00
32320;BME280;19080;51.750;5.888;2023-04-01T03:17:59;98905.56;;;9.69;100.00
32320;BME280;19080;51.750;5.888;2023-04-01T03:20:26;99010.88;;;10.25;100.00
32320;BME280;19080;51.750;5.888;2023-04-01T03:22:53;98973.91;;;10.10;100.00
32320;BME280;19080;51.750;5.888;2023-04-01T03:25:20;99016.13;;;10.30;100.00
32320;BME280;19080;51.750;5.888;2023-04-01T03:27:46;99002.09;;;10.17;100.00
32320;BME280;19080;51.750;5.888;2023-04-01T03:30:13;99004.75;;;10.20;100.00
32320;BME280;19080;51.750;5.888;2023-04-01T03:32:48;98994.25;;;10.09;100.00
32320;BME280;19080;51.750;5.888;2023-04-01T03:35:14;99015.28;;;10.25;100.00
32320;BME280;19080;51.750;5.888;2023-04-01T03:37:42;99007.44;;;10.14;100.00
32320;BME280;19080;51.750;5.888;2023-04-01T03:40:09;98999.56;;;10.09;100.00
32320;BME280;19080;51.750;5.888;2023-04-01T03:42:36;98975.81;;;10.00;100.00
32320;BME280;19080;51.750;5.888;2023-04-01T03:45:04;99026.75;;;10.28;100.00
32320;BME280;19080;51.750;5.888;2023-04-01T03:47:31;98990.78;;;10.04;100.00
32320;BME280;19080;51.750;5.888;2023-04-01T03:49:58;99018.88;;;10.21;100.00
32320;BME280;19080;51.750;5.888;2023-04-01T03:52:25;99024.09;;;10.28;100.00
32320;BME280;19080;51.750;5.888;2023-04-01T03:54:51;99003.97;;;10.09;100.00
32320;BME280;19080;51.750;5.888;2023-04-01T03:57:18;99002.25;;;10.05;100.00
32320;BME280;19080;51.750;5.888;2023-04-01T03:59:45;99002.19;;;10.09;100.00
32320;BME280;19080;51.750;5.888;2023-04-01T04:02:12;99000.63;;;9.95;100.00
32320;BME280;19080;51.750;5.888;2023-04-01T04:04:39;99036.59;;;10.16;100.00
32320;BME280;19080;51.750;5.888;2023-04-01T04:07:06;98986.50;;;9.93;100.00
32320;BME280;19080;51.750;5.888;2023-04-01T04:09:53;99012.03;;;10.00;100.00
32320;BME280;19080;51.750;5.888;2023-04-01T04:12:19;98991.84;;;9.90;100.00
32320;BME280;19080;51.750;5.888;2023-04-01T04:14:46;99021.63;;;10.10;100.00
32320;BME280;19080;51.750;5.888;2023-04-01T04:17:13;99011.09;;;10.04;100.00
32320;BME280;19080;51.750;5.888;2023-04-01T04:19:43;98960.25;;;9.71;100.00
32320;BME280;19080;51.750;5.888;2023-04-01T04:22:10;99035.72;;;10.15;100.00
32320;BME280;19080;51.750;5.888;2023-04-01T04:24:37;98926.97;;;9.49;100.00
32320;BME280;19080;51.750;5.888;2023-04-01T04:27:10;99048.06;;;10.16;100.00
32320;BME280;19080;51.750;5.888;2023-04-01T04:29:46;99046.38;;;10.09;100.00
32320;BME280;19080;51.750;5.888;2023-04-01T04:32:13;98946.38;;;9.51;100.00
32320;BME280;19080;51.750;5.888;2023-04-01T04:34:39;99012.16;;;9.89;100.00
32320;BME280;19080;51.750;5.888;2023-04-01T04:37:06;99034.19;;;9.94;100.00
32320;BME280;19080;51.750;5.888;2023-04-01T04:39:35;99055.31;;;10.00;100.00
32320;BME280;19080;51.750;5.888;2023-04-01T04:42:02;99018.47;;;9.79;100.00
32320;BME280;19080;51.750;5.888;2023-04-01T04:44:29;99028.91;;;9.93;100.00
32320;BME280;19080;51.750;5.888;2023-04-01T04:46:56;99031.59;;;9.88;100.00
32320;BME280;19080;51.750;5.888;2023-04-01T04:49:24;99070.28;;;10.04;100.00
32320;BME280;19080;51.750;5.888;2023-04-01T04:51:51;98950.91;;;9.40;100.00
32320;BME280;19080;51.750;5.888;2023-04-01T04:54:21;99020.25;;;9.75;100.00
32320;BME280;19080;51.750;5.888;2023-04-01T04:56:56;99067.69;;;10.00;100.00
32320;BME280;19080;51.750;5.888;2023-04-01T04:59:25;99054.59;;;9.85;100.00
32320;BME280;19080;51.750;5.888;2023-04-01T05:02:01;99042.28;;;9.81;100.00
32320;BME280;19080;51.750;5.888;2023-04-01T05:04:28;99052.78;;;9.90;100.00
32320;BME280;19080;51.750;5.888;2023-04-01T05:06:55;99066.97;;;9.86;100.00
32320;BME280;19080;51.750;5.888;2023-04-01T05:09:22;98974.78;;;9.34;100.00
32320;BME280;19080;51.750;5.888;2023-04-01T05:11:49;99041.53;;;9.68;100.00
32320;BME280;19080;51.750;5.888;2023-04-01T05:14:17;99068.75;;;9.82;100.00
32320;BME280;19080;51.750;5.888;2023-04-01T05:16:53;99071.38;;;9.85;100.00
32320;BME280;19080;51.750;5.888;2023-04-01T05:19:21;99090.78;;;9.89;100.00
32320;BME280;19080;51.750;5.888;2023-04-01T05:21:48;99069.72;;;9.76;100.00
32320;BME280;19080;51.750;5.888;2023-04-01T05:24:15;99045.09;;;9.65;100.00
32320;BME280;19080;51.750;5.888;2023-04-01T05:26:42;99073.22;;;9.78;100.00
32320;BME280;19080;51.750;5.888;2023-04-01T05:29:09;99071.50;;;9.74;100.00
32320;BME280;19080;51.750;5.888;2023-04-01T05:31:36;99076.78;;;9.74;100.00
32320;BME280;19080;51.750;5.888;2023-04-01T05:34:06;99045.16;;;9.59;100.00
32320;BME280;19080;51.750;5.888;2023-04-01T05:36:33;99070.59;;;9.75;100.00
32320;BME280;19080;51.750;5.888;2023-04-01T05:39:00;99073.34;;;9.66;100.00
32320;BME280;19080;51.750;5.888;2023-04-01T05:41:27;99083.88;;;9.72;100.00
32320;BME280;19080;51.750;5.888;2023-04-01T05:43:54;99108.41;;;9.91;100.00
32320;BME280;19080;51.750;5.888;2023-04-01T05:46:41;99093.47;;;9.84;100.00
32320;BME280;19080;51.750;5.888;2023-04-01T05:49:20;99120.75;;;9.94;100.00
32320;BME280;19080;51.750;5.888;2023-04-01T05:51:48;99103.09;;;9.93;100.00
32320;BME280;19080;51.750;5.888;2023-04-01T05:54:15;99115.41;;;10.00;100.00
32320;BME280;19080;51.750;5.888;2023-04-01T05:56:49;99117.16;;;10.01;100.00
32320;BME280;19080;51.750;5.888;2023-04-01T05:59:20;99103.97;;;9.95;100.00
32320;BME280;19080;51.750;5.888;2023-04-01T06:01:47;99074.91;;;9.86;100.00
32320;BME280;19080;51.750;5.888;2023-04-01T06:04:15;99087.25;;;9.90;100.00
32320;BME280;19080;51.750;5.888;2023-04-01T06:06:43;99053.88;;;9.70;100.00
32320;BME280;19080;51.750;5.888;2023-04-01T06:09:17;99059.16;;;9.70;100.00
32320;BME280;19080;51.750;5.888;2023-04-01T06:12:08;99138.16;;;10.24;100.00
32320;BME280;19080;51.750;5.888;2023-04-01T06:28:59;99127.56;;;10.19;100.00
32320;BME280;19080;51.750;5.888;2023-04-01T06:37:40;99179.41;;;10.46;100.00
32320;BME280;19080;51.750;5.888;2023-04-01T06:40:21;99154.06;;;10.22;100.00
32320;BME280;19080;51.750;5.888;2023-04-01T06:43:14;99158.41;;;10.31;100.00
32320;BME280;19080;51.750;5.888;2023-04-01T06:49:17;99154.81;;;10.36;100.00
32320;BME280;19080;51.750;5.888;2023-04-01T06:55:20;99169.66;;;10.50;100.00
32320;BME280;19080;51.750;5.888;2023-04-01T06:58:19;99185.53;;;10.53;100.00
32320;BME280;19080;51.750;5.888;2023-04-01T07:00:53;99211.03;;;10.64;100.00
32320;BME280;19080;51.750;5.888;2023-04-01T07:03:34;99117.88;;;10.20;100.00
32320;BME280;19080;51.750;5.888;2023-04-01T07:06:06;99179.38;;;10.51;100.00
32320;BME280;19080;51.750;5.888;2023-04-01T07:08:42;99179.38;;;10.49;100.00
32320;BME280;19080;51.750;5.888;2023-04-01T07:11:24;99145.22;;;10.23;100.00
32320;BME280;19080;51.750;5.888;2023-04-01T07:14:35;99226.84;;;10.75;100.00
32320;BME280;19080;51.750;5.888;2023-04-01T07:17:16;99214.69;;;10.56;100.00
32320;BME280;19080;51.750;5.888;2023-04-01T07:19:54;99221.63;;;10.66;100.00
32320;BME280;19080;51.750;5.888;2023-04-01T07:25:17;99219.03;;;10.63;100.00
32320;BME280;19080;51.750;5.888;2023-04-01T07:28:03;99227.81;;;10.68;100.00
32320;BME280;19080;51.750;5.888;2023-04-01T07:33:20;99154.97;;;10.17;100.00
32320;BME280;19080;51.750;5.888;2023-04-01T07:35:58;99251.59;;;10.77;100.00
32320;BME280;19080;51.750;5.888;2023-04-01T07:38:46;99158.56;;;10.13;100.00
32320;BME280;19080;51.750;5.888;2023-04-01T07:47:23;99242.13;;;10.52;100.00
32320;BME280;19080;51.750;5.888;2023-04-01T07:53:18;99243.06;;;10.48;100.00
32320;BME280;19080;51.750;5.888;2023-04-01T07:56:10;99279.16;;;10.64;100.00
32320;BME280;19080;51.750;5.888;2023-04-01T08:02:10;99292.31;;;10.73;100.00
32320;BME280;19080;51.750;5.888;2023-04-01T08:07:25;99265.09;;;10.56;100.00
32320;BME280;19080;51.750;5.888;2023-04-01T08:10:21;99306.38;;;10.81;100.00
32320;BME280;19080;51.750;5.888;2023-04-01T08:13:47;99308.19;;;10.79;100.00
32320;BME280;19080;51.750;5.888;2023-04-01T08:22:27;99326.75;;;10.79;100.00
32320;BME280;19080;51.750;5.888;2023-04-01T08:24:59;99299.44;;;10.68;100.00
32320;BME280;19080;51.750;5.888;2023-04-01T08:27:39;99331.13;;;10.85;100.00
32320;BME280;19080;51.750;5.888;2023-04-01T08:30:24;99330.19;;;10.90;100.00
32320;BME280;19080;51.750;5.888;2023-04-01T08:32:58;99270.44;;;10.50;100.00
32320;BME280;19080;51.750;5.888;2023-04-01T08:35:40;99339.94;;;10.87;100.00
32320;BME280;19080;51.750;5.888;2023-04-01T08:38:14;99342.50;;;10.97;100.00
32320;BME280;19080;51.750;5.888;2023-04-01T08:40:56;99353.13;;;10.97;100.00
32320;BME280;19080;51.750;5.888;2023-04-01T08:43:51;99354.94;;;10.91;100.00
32320;BME280;19080;51.750;5.888;2023-04-01T09:00:51;99374.53;;;10.77;100.00
32320;BME280;19080;51.750;5.888;2023-04-01T09:03:51;99382.44;;;10.84;100.00
32320;BME280;19080;51.750;5.888;2023-04-01T09:06:43;99363.97;;;10.73;100.00
32320;BME280;19080;51.750;5.888;2023-04-01T09:26:22;99331.34;;;10.62;100.00
32320;BME280;19080;51.750;5.888;2023-04-01T09:35:24;99372.75;;;10.80;100.00
32320;BME280;19080;51.750;5.888;2023-04-01T09:40:46;99423.75;;;11.14;100.00
32320;BME280;19080;51.750;5.888;2023-04-01T09:43:27;99436.19;;;11.08;100.00
32320;BME280;19080;51.750;5.888;2023-04-01T09:49:04;99449.44;;;11.13;100.00
32320;BME280;19080;51.750;5.888;2023-04-01T09:51:53;99427.34;;;11.08;100.00
32320;BME280;19080;51.750;5.888;2023-04-01T09:54:58;99425.63;;;11.02;100.00
32320;BME280;19080;51.750;5.888;2023-04-01T10:15:49;99387.06;;;10.62;100.00
32320;BME280;19080;51.750;5.888;2023-04-01T10:21:56;99480.50;;;11.03;100.00
32320;BME280;19080;51.750;5.888;2023-04-01T10:24:53;99485.00;;;10.92;100.00
32320;BME280;19080;51.750;5.888;2023-04-01T10:31:07;99491.09;;;11.06;100.00
32320;BME280;19080;51.750;5.888;2023-04-01T10:36:54;99501.72;;;11.03;100.00
32320;BME280;19080;51.750;5.888;2023-04-01T10:48:48;99503.28;;;11.29;100.00
32320;BME280;19080;51.750;5.888;2023-04-01T10:51:43;99499.75;;;11.27;100.00
32320;BME280;19080;51.750;5.888;2023-04-01T11:04:36;99518.66;;;11.87;100.00
32320;BME280;19080;51.750;5.888;2023-04-01T11:11:20;99503.56;;;11.90;100.00
32320;BME280;19080;51.750;5.888;2023-04-01T11:17:42;99528.94;;;12.14;100.00
32320;BME280;19080;51.750;5.888;2023-04-01T11:26:02;99480.69;;;11.72;100.00
32320;BME280;19080;51.750;5.888;2023-04-01T11:29:00;99468.41;;;11.62;100.00
32320;BME280;19080;51.750;5.888;2023-04-01T11:40:16;99552.28;;;11.92;100.00
32320;BME280;19080;51.750;5.888;2023-04-01T11:43:34;99555.91;;;11.84;100.00
32320;BME280;19080;51.750;5.888;2023-04-01T11:46:33;99482.78;;;11.41;100.00
32320;BME280;19080;51.750;5.888;2023-04-01T11:49:14;99569.25;;;11.79;100.00
32320;BME280;19080;51.750;5.888;2023-04-01T11:57:53;99537.06;;;12.05;100.00
32320;BME280;19080;51.750;5.888;2023-04-01T12:00:45;99546.75;;;12.09;100.00
32320;BME280;19080;51.750;5.888;2023-04-01T12:07:08;99592.72;;;12.88;100.00
32320;BME280;19080;51.750;5.888;2023-04-01T12:09:51;99568.34;;;13.17;100.00
32320;BME280;19080;51.750;5.888;2023-04-01T12:12:54;99597.81;;;13.61;100.00
32320;BME280;19080;51.750;5.888;2023-04-01T12:33:04;99622.59;;;12.44;100.00
32320;BME280;19080;51.750;5.888;2023-04-01T12:41:52;99604.53;;;13.31;100.00
32320;BME280;19080;51.750;5.888;2023-04-01T12:44:50;99624.22;;;13.77;100.00
32320;BME280;19080;51.750;5.888;2023-04-01T12:47:53;99631.44;;;14.64;100.00
32320;BME280;19080;51.750;5.888;2023-04-01T12:53:50;99552.88;;;14.32;100.00
32320;BME280;19080;51.750;5.888;2023-04-01T13:11:46;99665.22;;;12.37;100.00
32320;BME280;19080;51.750;5.888;2023-04-01T13:19:54;99675.31;;;12.10;100.00
32320;BME280;19080;51.750;5.888;2023-04-01T13:22:56;99653.34;;;11.88;100.00
32320;BME280;19080;51.750;5.888;2023-04-01T13:25:36;99633.16;;;11.62;100.00
32320;BME280;19080;51.750;5.888;2023-04-01T13:30:42;99583.94;;;11.17;100.00
32320;BME280;19080;51.750;5.888;2023-04-01T13:33:33;99681.97;;;11.54;100.00
32320;BME280;19080;51.750;5.888;2023-04-01T13:36:13;99668.84;;;11.31;100.00
32320;BME280;19080;51.750;5.888;2023-04-01T13:44:25;99620.34;;;10.98;100.00
32320;BME280;19080;51.750;5.888;2023-04-01T13:53:35;99697.97;;;11.43;100.00
32320;BME280;19080;51.750;5.888;2023-04-01T14:01:17;99719.16;;;11.55;100.00
32320;BME280;19080;51.750;5.888;2023-04-01T14:06:59;99650.31;;;11.22;100.00
32320;BME280;19080;51.750;5.888;2023-04-01T14:09:32;99731.50;;;11.62;100.00
32320;BME280;19080;51.750;5.888;2023-04-01T14:12:07;99720.03;;;11.54;100.00
32320;BME280;19080;51.750;5.888;2023-04-01T14:14:53;99736.78;;;11.65;100.00
32320;BME280;19080;51.750;5.888;2023-04-01T14:20:29;99693.50;;;11.50;100.00
32320;BME280;19080;51.750;5.888;2023-04-01T14:31:30;99748.94;;;12.06;100.00
32320;BME280;19080;51.750;5.888;2023-04-01T14:45:43;99747.88;;;12.22;100.00
32320;BME280;19080;51.750;5.888;2023-04-01T14:49:13;99770.00;;;12.24;100.00
32320;BME280;19080;51.750;5.888;2023-04-01T14:51:38;99739.13;;;12.10;100.00
32320;BME280;19080;51.750;5.888;2023-04-01T14:54:35;99774.44;;;12.27;100.00
32320;BME280;19080;51.750;5.888;2023-04-01T14:57:14;99752.50;;;12.02;100.00
32320;BME280;19080;51.750;5.888;2023-04-01T15:05:46;99796.78;;;12.08;100.00
32320;BME280;19080;51.750;5.888;2023-04-01T15:08:21;99713.78;;;11.64;100.00
32320;BME280;19080;51.750;5.888;2023-04-01T15:11:10;99799.50;;;12.00;100.00
32320;BME280;19080;51.750;5.888;2023-04-01T15:16:25;99797.72;;;12.02;100.00
32320;BME280;19080;51.750;5.888;2023-04-01T15:19:16;99789.00;;;11.76;100.00
32320;BME280;19080;51.750;5.888;2023-04-01T15:30:57;99827.13;;;11.74;100.00
32320;BME280;19080;51.750;5.888;2023-04-01T15:33:39;99811.25;;;11.59;100.00
32320;BME280;19080;51.750;5.888;2023-04-01T15:36:20;99830.69;;;11.70;100.00
32320;BME280;19080;51.750;5.888;2023-04-01T15:41:28;99841.28;;;11.77;100.00
32320;BME280;19080;51.750;5.888;2023-04-01T15:44:02;99816.53;;;11.68;100.00
32320;BME280;19080;51.750;5.888;2023-04-01T15:46:48;99828.88;;;11.82;100.00
32320;BME280;19080;51.750;5.888;2023-04-01T15:49:36;99832.34;;;11.93;100.00
32320;BME280;19080;51.750;5.888;2023-04-01T16:00:30;99732.41;;;11.60;100.00
32320;BME280;19080;51.750;5.888;2023-04-01T16:03:31;99873.63;;;12.43;100.00
32320;BME280;19080;51.750;5.888;2023-04-01T16:09:24;99887.72;;;12.55;100.00
32320;BME280;19080;51.750;5.888;2023-04-01T16:12:07;99840.84;;;12.37;100.00
32320;BME280;19080;51.750;5.888;2023-04-01T16:21:02;99885.09;;;12.51;100.00
32320;BME280;19080;51.750;5.888;2023-04-01T16:23:37;99819.78;;;12.13;100.00
32320;BME280;19080;51.750;5.888;2023-04-01T16:26:17;99863.94;;;12.35;100.00
32320;BME280;19080;51.750;5.888;2023-04-01T16:28:54;99879.91;;;12.35;100.00
32320;BME280;19080;51.750;5.888;2023-04-01T16:34:19;99885.31;;;12.23;100.00
32320;BME280;19080;51.750;5.888;2023-04-01T16:37:03;99895.06;;;12.23;100.00
32320;BME280;19080;51.750;5.888;2023-04-01T16:39:43;99931.34;;;12.34;100.00
32320;BME280;19080;51.750;5.888;2023-04-01T16:42:26;99904.91;;;12.13;100.00
32320;BME280;19080;51.750;5.888;2023-04-01T16:47:40;99945.63;;;12.18;100.00
32320;BME280;19080;51.750;5.888;2023-04-01T16:53:49;99939.59;;;11.95;100.00
32320;BME280;19080;51.750;5.888;2023-04-01T16:56:03;99960.84;;;11.98;100.00
32320;BME280;19080;51.750;5.888;2023-04-01T17:01:24;99977.72;;;11.91;100.00
32320;BME280;19080;51.750;5.888;2023-04-01T17:04:00;99978.66;;;11.84;100.00
32320;BME280;19080;51.750;5.888;2023-04-01T17:06:31;99994.59;;;11.85;100.00
32320;BME280;19080;51.750;5.888;2023-04-01T17:15:02;100008.78;;;11.72;100.00
32320;BME280;19080;51.750;5.888;2023-04-01T17:28:34;100032.72;;;11.61;100.00
32320;BME280;19080;51.750;5.888;2023-04-01T17:31:20;100011.50;;;11.34;100.00
32320;BME280;19080;51.750;5.888;2023-04-01T17:42:31;100045.16;;;11.14;100.00
32320;BME280;19080;51.750;5.888;2023-04-01T17:47:52;100058.44;;;11.00;100.00
32320;BME280;19080;51.750;5.888;2023-04-01T17:50:33;100079.69;;;11.01;100.00
32320;BME280;19080;51.750;5.888;2023-04-01T17:53:14;100054.00;;;10.76;100.00
32320;BME280;19080;51.750;5.888;2023-04-01T17:55:55;100081.41;;;10.80;100.00
32320;BME280;19080;51.750;5.888;2023-04-01T18:01:29;100078.75;;;10.69;100.00
32320;BME280;19080;51.750;5.888;2023-04-01T18:04:14;100093.78;;;10.73;100.00
32320;BME280;19080;51.750;5.888;2023-04-01T18:07:19;100114.16;;;10.80;100.00
32320;BME280;19080;51.750;5.888;2023-04-01T18:21:10;100041.34;;;9.96;100.00
32320;BME280;19080;51.750;5.888;2023-04-01T18:23:47;100136.13;;;10.32;100.00
32320;BME280;19080;51.750;5.888;2023-04-01T18:26:33;100172.41;;;10.47;100.00
32320;BME280;19080;51.750;5.888;2023-04-01T18:29:13;100172.41;;;10.37;100.00
32320;BME280;19080;51.750;5.888;2023-04-01T18:31:51;100064.16;;;9.69;100.00
32320;BME280;19080;51.750;5.888;2023-04-01T18:37:31;100165.16;;;10.12;100.00
32320;BME280;19080;51.750;5.888;2023-04-01T18:40:22;100217.47;;;10.34;100.00
32320;BME280;19080;51.750;5.888;2023-04-01T18:45:54;100200.53;;;10.16;100.00
32320;BME280;19080;51.750;5.888;2023-04-01T18:51:14;100245.69;;;10.22;100.00
32320;BME280;19080;51.750;5.888;2023-04-01T18:53:57;100241.22;;;10.19;100.00
32320;BME280;19080;51.750;5.888;2023-04-01T18:56:38;100225.19;;;10.04;100.00
32320;BME280;19080;51.750;5.888;2023-04-01T19:01:55;100179.84;;;9.67;100.00
32320;BME280;19080;51.750;5.888;2023-04-01T19:04:28;100261.47;;;10.06;100.00
32320;BME280;19080;51.750;5.888;2023-04-01T19:06:59;100269.34;;;9.99;100.00
32320;BME280;19080;51.750;5.888;2023-04-01T19:09:29;100217.84;;;9.69;100.00
32320;BME280;19080;51.750;5.888;2023-04-01T19:15:21;100297.63;;;10.00;100.00
32320;BME280;19080;51.750;5.888;2023-04-01T19:20:26;100323.25;;;9.98;100.00
32320;BME280;19080;51.750;5.888;2023-04-01T19:25:54;100308.97;;;9.82;100.00
32320;BME280;19080;51.750;5.888;2023-04-01T19:37:09;100352.25;;;9.83;100.00
32320;BME280;19080;51.750;5.888;2023-04-01T19:40:00;100357.56;;;9.83;100.00
32320;BME280;19080;51.750;5.888;2023-04-01T19:42:52;100345.06;;;9.69;100.00
32320;BME280;19080;51.750;5.888;2023-04-01T19:48:39;100344.84;;;9.51;100.00
32320;BME280;19080;51.750;5.888;2023-04-01T19:51:37;100375.94;;;9.66;100.00
32320;BME280;19080;51.750;5.888;2023-04-01T19:54:30;100378.53;;;9.61;100.00
32320;BME280;19080;51.750;5.888;2023-04-01T19:57:19;100356.28;;;9.47;100.00
32320;BME280;19080;51.750;5.888;2023-04-01T20:05:35;100406.59;;;9.45;100.00
32320;BME280;19080;51.750;5.888;2023-04-01T20:08:07;100408.31;;;9.42;100.00
32320;BME280;19080;51.750;5.888;2023-04-01T20:16:03;100382.28;;;9.09;100.00
32320;BME280;19080;51.750;5.888;2023-04-01T20:18:54;100431.19;;;9.37;100.00
32320;BME280;19080;51.750;5.888;2023-04-01T20:21:35;100386.72;;;9.11;100.00
32320;BME280;19080;51.750;5.888;2023-04-01T20:24:26;100439.22;;;9.41;100.00
32320;BME280;19080;51.750;5.888;2023-04-01T20:27:10;100414.16;;;9.18;100.00
32320;BME280;19080;51.750;5.888;2023-04-01T20:29:56;100459.44;;;9.35;100.00
32320;BME280;19080;51.750;5.888;2023-04-01T20:33:03;100461.25;;;9.39;100.00
32320;BME280;19080;51.750;5.888;2023-04-01T20:35:50;100471.84;;;9.39;100.00
32320;BME280;19080;51.750;5.888;2023-04-01T20:41:26;100396.97;;;8.87;100.00
32320;BME280;19080;51.750;5.888;2023-04-01T20:46:39;100501.75;;;9.32;100.00